Time;durP1;ratioP1;P1;durP2;ratioP2;P2;SDS_P1;SDS_P2;PMS_P1;PMS_P2;Temp;Humidity;BMP_temperature;BMP_pressure;BME280_temperature;BME280_humidity;BME280_pressure;Samples;Min_cycle;Max_cycle;Signal;HPM_P1;HPM_P2
2021/12/08 00:01:31;;;;;;;8.60;3.55;;;4.20;99.90;;;;;;5068224;28;20035;-79
2021/12/08 00:03:57;;;;;;;9.73;4.05;;;4.20;99.90;;;;;;5073481;28;20060;-79
2021/12/08 00:06:23;;;;;;;9.82;3.70;;;4.20;99.90;;;;;;5063520;28;20477;-79
2021/12/08 00:09:02;;;;;;;8.98;3.67;;;4.20;99.90;;;;;;5081339;28;20035;-79
2021/12/08 00:14:13;;;;;;;10.60;3.90;;;4.20;99.90;;;;;;5078879;28;20311;-79
2021/12/08 00:16:39;;;;;;;10.40;3.50;;;4.20;99.90;;;;;;5066495;28;20046;-79
2021/12/08 00:19:05;;;;;;;10.50;4.43;;;4.20;99.90;;;;;;5080592;28;20036;-79
2021/12/08 00:21:30;;;;;;;7.97;3.67;;;4.20;99.90;;;;;;5069212;28;20053;-79
2021/12/08 00:23:56;;;;;;;8.35;3.72;;;4.20;99.90;;;;;;5065212;28;20029;-80
2021/12/08 00:26:22;;;;;;;10.13;3.85;;;4.20;99.90;;;;;;5056925;28;20063;-79
2021/12/08 00:28:47;;;;;;;12.95;5.03;;;4.30;99.90;;;;;;5061509;28;20343;-79
2021/12/08 00:31:13;;;;;;;8.52;3.58;;;4.20;99.90;;;;;;5086020;28;20193;-80
2021/12/08 00:33:39;;;;;;;12.75;3.72;;;4.30;99.90;;;;;;5083856;28;20392;-79
2021/12/08 00:36:12;;;;;;;7.80;3.67;;;4.30;99.90;;;;;;5063600;28;20455;-79
2021/12/08 00:38:38;;;;;;;7.97;3.30;;;4.30;99.90;;;;;;5081007;28;20075;-80
2021/12/08 00:41:04;;;;;;;8.43;3.40;;;4.30;99.90;;;;;;5076306;28;20124;-79
2021/12/08 00:43:29;;;;;;;12.45;4.00;;;4.20;99.90;;;;;;5075485;28;20557;-79
2021/12/08 00:45:55;;;;;;;10.93;4.05;;;4.30;99.90;;;;;;5093496;28;20028;-79
2021/12/08 00:48:22;;;;;;;8.52;3.63;;;4.20;99.90;;;;;;5080040;28;20417;-79
2021/12/08 00:50:48;;;;;;;11.88;4.18;;;4.30;99.90;;;;;;5076485;28;20511;-79
2021/12/08 00:53:16;;;;;;;10.10;4.45;;;4.20;99.90;;;;;;5077466;28;20071;-79
2021/12/08 00:55:42;;;;;;;9.88;3.90;;;4.20;99.90;;;;;;5093494;28;20036;-79
2021/12/08 00:58:08;;;;;;;9.48;3.42;;;4.30;99.90;;;;;;5066866;28;20040;-79
2021/12/08 01:00:37;;;;;;;11.32;3.58;;;4.30;99.90;;;;;;5078057;28;20036;-79
2021/12/08 01:03:04;;;;;;;11.27;3.78;;;4.20;99.90;;;;;;5085089;28;21693;-79
2021/12/08 01:05:35;;;;;;;9.32;3.53;;;4.30;99.90;;;;;;5081354;28;20031;-79
2021/12/08 01:08:02;;;;;;;8.55;3.55;;;4.30;99.90;;;;;;5082841;28;20499;-79
2021/12/08 01:10:28;;;;;;;8.75;3.50;;;4.30;99.90;;;;;;5081143;28;20043;-79
2021/12/08 01:12:55;;;;;;;9.57;3.13;;;4.30;99.90;;;;;;5060329;28;20063;-79
2021/12/08 01:15:22;;;;;;;9.05;4.00;;;4.30;99.90;;;;;;5082793;28;20039;-79
2021/12/08 01:17:48;;;;;;;8.18;4.22;;;4.30;99.90;;;;;;5067404;28;20035;-79
2021/12/08 01:20:16;;;;;;;9.65;4.15;;;4.30;99.90;;;;;;5083083;28;20225;-79
2021/12/08 01:22:43;;;;;;;12.88;3.88;;;4.40;99.90;;;;;;5066949;28;20135;-79
2021/12/08 01:25:09;;;;;;;8.75;3.80;;;4.40;99.90;;;;;;5080048;28;20124;-79
2021/12/08 01:27:36;;;;;;;7.72;3.60;;;4.40;99.90;;;;;;5064072;28;20036;-80
2021/12/08 01:30:03;;;;;;;9.80;3.55;;;4.30;99.90;;;;;;5091356;28;20043;-79
2021/12/08 01:32:29;;;;;;;7.20;3.78;;;4.40;99.90;;;;;;5062959;28;20078;-80
2021/12/08 01:34:54;;;;;;;9.60;4.10;;;4.40;99.90;;;;;;5060106;28;20072;-80
2021/12/08 01:37:21;;;;;;;6.93;3.58;;;4.40;99.90;;;;;;5060690;28;20713;-79
2021/12/08 01:39:48;;;;;;;10.02;4.55;;;4.40;99.90;;;;;;5097134;28;20052;-79
2021/12/08 01:42:25;;;;;;;9.20;3.67;;;4.40;99.90;;;;;;5068360;28;20487;-80
2021/12/08 01:47:36;;;;;;;9.48;4.43;;;4.40;99.90;;;;;;5082814;28;20498;-80
2021/12/08 01:50:03;;;;;;;9.98;3.97;;;4.40;99.90;;;;;;5071324;28;20042;-80
2021/12/08 01:52:29;;;;;;;7.95;3.50;;;4.40;99.90;;;;;;5085184;28;20048;-80
2021/12/08 01:54:55;;;;;;;13.52;3.97;;;4.40;99.90;;;;;;5087235;28;20035;-80
2021/12/08 01:57:21;;;;;;;9.52;4.13;;;4.50;99.90;;;;;;5081607;28;20044;-80
2021/12/08 01:59:47;;;;;;;12.27;3.92;;;4.40;99.90;;;;;;5080565;28;20496;-80
2021/12/08 02:02:14;;;;;;;8.68;3.47;;;4.50;99.90;;;;;;5084010;28;20097;-80
2021/12/08 02:04:41;;;;;;;12.20;3.55;;;4.50;99.90;;;;;;5078037;28;20039;-80
2021/12/08 02:07:07;;;;;;;8.60;3.83;;;4.50;99.90;;;;;;5081107;28;20408;-80
2021/12/08 02:09:33;;;;;;;10.32;3.30;;;4.50;99.90;;;;;;5080750;28;20039;-80
2021/12/08 02:11:59;;;;;;;9.93;3.95;;;4.50;99.90;;;;;;5083429;28;20059;-80
2021/12/08 02:14:24;;;;;;;8.43;3.38;;;4.50;99.90;;;;;;5078202;28;20617;-80
2021/12/08 02:16:53;;;;;;;7.70;3.67;;;4.50;99.90;;;;;;5076025;28;20033;-80
2021/12/08 02:19:19;;;;;;;10.57;3.78;;;4.50;99.90;;;;;;5101873;27;20480;-80
2021/12/08 02:21:51;;;;;;;8.70;4.57;;;4.50;99.90;;;;;;5070857;28;20036;-80
2021/12/08 02:24:20;;;;;;;6.63;3.38;;;4.50;99.90;;;;;;5067031;28;20078;-79
2021/12/08 02:26:50;;;;;;;9.38;4.22;;;4.50;99.90;;;;;;5076419;28;20036;-80
2021/12/08 02:29:24;;;;;;;8.90;4.47;;;4.50;99.90;;;;;;5084111;28;20032;-80
2021/12/08 02:32:01;;;;;;;8.27;3.83;;;4.50;99.90;;;;;;5068542;28;20042;-80
2021/12/08 02:48:08;;;;;;;9.10;4.07;;;4.50;99.90;;;;;;5081011;28;20080;-80
2021/12/08 02:50:37;;;;;;;9.23;4.82;;;4.60;99.90;;;;;;5065011;28;20472;-79
2021/12/08 02:53:05;;;;;;;7.32;3.85;;;4.50;99.90;;;;;;5075082;28;20047;-79
2021/12/08 02:55:31;;;;;;;12.82;4.55;;;4.60;99.90;;;;;;5082032;28;20047;-79
2021/12/08 02:58:00;;;;;;;7.50;3.92;;;4.60;99.90;;;;;;5085301;28;20036;-79
2021/12/08 03:00:28;;;;;;;6.18;3.58;;;4.50;99.90;;;;;;5078963;28;20610;-80
2021/12/08 03:02:57;;;;;;;6.43;3.65;;;4.60;99.90;;;;;;5098545;27;20126;-80
2021/12/08 03:05:23;;;;;;;7.97;3.92;;;4.50;99.90;;;;;;5083212;28;20405;-80
2021/12/08 03:07:49;;;;;;;8.80;3.72;;;4.60;99.90;;;;;;5085838;28;20043;-80
2021/12/08 03:10:19;;;;;;;12.25;4.22;;;4.60;99.90;;;;;;5062424;28;20447;-80
2021/12/08 03:12:45;;;;;;;8.88;4.45;;;4.60;99.90;;;;;;5061559;28;20036;-80
2021/12/08 03:15:11;;;;;;;8.30;4.38;;;4.60;99.90;;;;;;5076221;28;20504;-80
2021/12/08 03:17:37;;;;;;;10.25;3.95;;;4.60;99.90;;;;;;5079909;28;20077;-80
2021/12/08 03:20:10;;;;;;;8.20;4.40;;;4.70;99.90;;;;;;5073684;28;20036;-80
2021/12/08 03:22:41;;;;;;;7.22;4.38;;;4.70;99.90;;;;;;5084456;28;20580;-80
2021/12/08 03:25:10;;;;;;;7.78;4.18;;;4.70;99.90;;;;;;5082712;28;20107;-80
2021/12/08 03:27:43;;;;;;;11.73;4.80;;;4.70;99.90;;;;;;5061677;28;20378;-79
2021/12/08 03:30:20;;;;;;;8.23;4.57;;;4.60;99.90;;;;;;5078930;28;20028;-79
2021/12/08 03:32:46;;;;;;;10.25;4.97;;;4.70;99.90;;;;;;5081633;28;20039;-79
2021/12/08 03:35:16;;;;;;;7.80;4.82;;;4.70;99.90;;;;;;5076039;28;20043;-80
2021/12/08 03:37:44;;;;;;;9.98;5.82;;;4.80;99.90;;;;;;5059694;28;20032;-80
2021/12/08 03:40:14;;;;;;;10.00;4.80;;;4.80;99.90;;;;;;5079498;28;20068;-80
2021/12/08 03:42:41;;;;;;;8.15;4.38;;;4.80;99.90;;;;;;5080879;28;20374;-79
2021/12/08 03:45:17;;;;;;;8.50;5.10;;;4.80;99.90;;;;;;5081355;28;20625;-80
2021/12/08 03:47:46;;;;;;;8.27;5.00;;;4.80;99.90;;;;;;5082738;28;20039;-80
2021/12/08 03:50:14;;;;;;;9.40;5.63;;;4.80;99.90;;;;;;5078405;28;20036;-80
2021/12/08 03:52:40;;;;;;;9.70;5.07;;;4.90;99.90;;;;;;5067001;28;20036;-79
2021/12/08 03:55:08;;;;;;;9.27;5.70;;;4.90;99.90;;;;;;5080375;28;20417;-80
2021/12/08 03:57:34;;;;;;;9.68;5.72;;;4.90;99.90;;;;;;5079100;28;20047;-79
2021/12/08 03:59:59;;;;;;;8.13;6.03;;;4.90;99.90;;;;;;5094097;28;20033;-79
2021/12/08 04:02:26;;;;;;;8.45;5.43;;;4.90;99.90;;;;;;5079164;28;20097;-80
2021/12/08 04:04:52;;;;;;;9.05;5.28;;;4.90;99.90;;;;;;5060660;28;20032;-79
2021/12/08 04:07:19;;;;;;;10.55;5.90;;;4.90;99.90;;;;;;5082737;28;20123;-80
2021/12/08 04:09:48;;;;;;;10.05;5.43;;;5.00;99.90;;;;;;5064206;28;20055;-80
2021/12/08 04:12:18;;;;;;;11.90;6.38;;;5.00;99.90;;;;;;5068615;28;20101;-80
2021/12/08 04:14:56;;;;;;;11.43;6.32;;;5.00;99.90;;;;;;5088342;28;20044;-80
2021/12/08 04:17:36;;;;;;;11.10;6.00;;;5.00;99.90;;;;;;5078428;28;20855;-80
2021/12/08 04:20:11;;;;;;;11.02;6.03;;;5.00;99.90;;;;;;5073727;28;20044;-79
2021/12/08 04:22:39;;;;;;;10.75;5.88;;;5.00;99.90;;;;;;5083070;28;20062;-79
2021/12/08 04:25:15;;;;;;;12.02;7.13;;;5.00;99.90;;;;;;5085966;28;20523;-80
2021/12/08 04:27:43;;;;;;;9.50;6.72;;;5.10;99.90;;;;;;5080605;28;20047;-80
2021/12/08 04:30:14;;;;;;;11.50;6.28;;;5.10;99.90;;;;;;5083185;28;20109;-80
2021/12/08 04:32:40;;;;;;;11.15;6.70;;;5.10;99.90;;;;;;5061986;28;20119;-80
2021/12/08 04:35:09;;;;;;;12.15;7.20;;;5.10;99.90;;;;;;5062817;28;20123;-80
2021/12/08 04:37:39;;;;;;;9.70;6.88;;;5.10;99.90;;;;;;5077817;28;20051;-80
2021/12/08 04:40:24;;;;;;;11.52;7.32;;;5.20;99.90;;;;;;5082873;28;20050;-80
2021/12/08 04:43:08;;;;;;;11.93;7.75;;;5.20;99.90;;;;;;5096204;28;20532;-80
2021/12/08 04:45:56;;;;;;;12.98;7.38;;;5.20;99.90;;;;;;5066247;28;20040;-80
2021/12/08 04:48:44;;;;;;;12.85;8.35;;;5.30;99.90;;;;;;5078319;28;20032;-80
2021/12/08 05:09:33;;;;;;;11.50;7.68;;;5.40;99.90;;;;;;5071126;28;20040;-80
2021/12/08 05:12:15;;;;;;;15.52;7.45;;;5.50;99.90;;;;;;5066688;28;20161;-80
2021/12/08 05:15:04;;;;;;;14.35;8.15;;;5.50;99.90;;;;;;5077553;28;20032;-80
2021/12/08 05:17:56;;;;;;;14.85;7.70;;;5.50;99.90;;;;;;5077005;28;20044;-80
2021/12/08 05:20:36;;;;;;;13.15;7.35;;;5.50;99.90;;;;;;5086558;28;20040;-80
2021/12/08 05:23:23;;;;;;;11.27;7.38;;;5.40;99.90;;;;;;5088524;28;20042;-80
2021/12/08 05:25:50;;;;;;;11.02;7.60;;;5.40;99.90;;;;;;5069121;28;20115;-80
2021/12/08 05:28:19;;;;;;;11.30;7.35;;;5.40;99.90;;;;;;5085164;28;20032;-80
2021/12/08 05:30:54;;;;;;;12.02;6.78;;;5.40;99.90;;;;;;5081030;28;20640;-80
2021/12/08 05:33:20;;;;;;;10.32;6.65;;;5.40;99.90;;;;;;5086044;28;20459;-80
2021/12/08 05:35:46;;;;;;;10.68;6.70;;;5.40;99.90;;;;;;5078985;28;20067;-80
2021/12/08 05:38:14;;;;;;;12.15;6.80;;;5.40;99.90;;;;;;5080197;28;20654;-80
2021/12/08 05:40:50;;;;;;;14.15;7.28;;;5.40;99.90;;;;;;5078578;28;20067;-80
2021/12/08 05:43:17;;;;;;;15.57;7.00;;;5.50;99.90;;;;;;5065973;28;20615;-80
2021/12/08 05:45:44;;;;;;;11.43;7.18;;;5.50;99.90;;;;;;5082120;28;20038;-80
2021/12/08 05:48:11;;;;;;;12.30;7.28;;;5.50;99.90;;;;;;5087919;28;20036;-80
2021/12/08 05:50:52;;;;;;;14.32;6.18;;;5.50;99.90;;;;;;5082987;28;20051;-80
2021/12/08 05:53:18;;;;;;;10.35;6.60;;;5.50;99.90;;;;;;5067103;28;20036;-80
2021/12/08 05:55:44;;;;;;;10.65;6.80;;;5.60;99.90;;;;;;5067627;28;20036;-80
2021/12/08 05:58:12;;;;;;;10.65;6.10;;;5.50;99.90;;;;;;5071368;28;20488;-80
2021/12/08 06:00:44;;;;;;;9.50;6.25;;;5.60;99.90;;;;;;5098076;27;20123;-80
2021/12/08 06:03:11;;;;;;;12.25;6.28;;;5.60;99.90;;;;;;5077623;28;20035;-80
2021/12/08 06:05:36;;;;;;;10.20;6.38;;;5.60;99.90;;;;;;5079449;28;20119;-80
2021/12/08 06:08:03;;;;;;;11.10;6.60;;;5.60;99.90;;;;;;5068948;28;20569;-80
2021/12/08 06:10:32;;;;;;;12.98;6.93;;;5.60;99.90;;;;;;5083274;28;20485;-80
2021/12/08 06:12:59;;;;;;;14.35;5.97;;;5.60;99.90;;;;;;5067133;28;20047;-80
2021/12/08 06:15:25;;;;;;;16.13;6.88;;;5.60;99.90;;;;;;5078096;28;20078;-80
2021/12/08 06:17:52;;;;;;;13.88;6.57;;;5.70;99.90;;;;;;5080028;28;20052;-80
2021/12/08 06:20:19;;;;;;;12.10;6.68;;;5.70;99.90;;;;;;5083676;28;20071;-80
2021/12/08 06:22:47;;;;;;;9.77;5.70;;;5.70;99.90;;;;;;5064840;28;20036;-80
2021/12/08 06:25:15;;;;;;;14.85;6.18;;;5.70;99.90;;;;;;5083101;28;20489;-79
2021/12/08 06:27:40;;;;;;;10.88;5.57;;;5.60;99.90;;;;;;5068620;28;20032;-79
2021/12/08 06:30:10;;;;;;;7.50;5.30;;;5.60;99.90;;;;;;5077123;28;20048;-80
2021/12/08 06:32:36;;;;;;;9.43;5.25;;;5.70;99.90;;;;;;5061312;28;20096;-79
2021/12/08 06:35:05;;;;;;;9.18;5.13;;;5.60;99.90;;;;;;5078027;28;20463;-79
2021/12/08 06:37:36;;;;;;;10.73;5.18;;;5.60;99.90;;;;;;5080892;28;20378;-80
2021/12/08 06:40:38;;;;;;;10.00;5.10;;;5.60;99.90;;;;;;5079525;28;20073;-79
2021/12/08 06:43:07;;;;;;;9.13;5.10;;;5.60;99.90;;;;;;5074502;28;20056;-79
2021/12/08 06:45:37;;;;;;;10.32;4.75;;;5.50;99.90;;;;;;5079915;28;20462;-80
2021/12/08 06:48:06;;;;;;;11.68;5.15;;;5.50;99.90;;;;;;5071801;28;20435;-79
2021/12/08 06:50:39;;;;;;;9.95;5.32;;;5.50;99.90;;;;;;5082804;28;20127;-79
2021/12/08 06:53:06;;;;;;;13.27;4.88;;;5.50;99.90;;;;;;5078848;28;20047;-78
2021/12/08 06:55:43;;;;;;;10.27;4.38;;;5.50;99.90;;;;;;5067993;28;20035;-79
2021/12/08 06:58:18;;;;;;;10.30;4.85;;;5.50;99.90;;;;;;5081273;28;20039;-80
2021/12/08 07:03:49;;;;;;;8.43;4.40;;;5.40;99.90;;;;;;5077159;28;20040;-80
2021/12/08 07:06:41;;;;;;;8.35;4.07;;;5.40;99.90;;;;;;5077491;28;20107;-79
2021/12/08 07:09:11;;;;;;;9.30;4.47;;;5.40;99.90;;;;;;5059954;28;20036;-78
2021/12/08 07:11:38;;;;;;;8.38;4.03;;;5.40;99.90;;;;;;5073335;28;20072;-80
2021/12/08 07:14:03;;;;;;;9.48;4.00;;;5.40;99.90;;;;;;5078324;28;20047;-79
2021/12/08 07:16:38;;;;;;;11.50;3.42;;;5.40;99.90;;;;;;5062054;28;20032;-79
2021/12/08 07:19:22;;;;;;;5.75;2.92;;;5.40;99.90;;;;;;5078382;28;20050;-78
2021/12/08 07:21:49;;;;;;;7.68;3.05;;;5.40;99.90;;;;;;5084106;28;20036;-78
2021/12/08 07:24:20;;;;;;;5.88;3.03;;;5.40;99.90;;;;;;5080123;28;20028;-78
2021/12/08 07:26:48;;;;;;;7.13;3.00;;;5.40;99.90;;;;;;5082019;28;20082;-78
2021/12/08 07:29:20;;;;;;;8.18;2.90;;;5.40;99.90;;;;;;5081158;28;20101;-78
2021/12/08 07:32:02;;;;;;;8.90;3.10;;;5.30;99.90;;;;;;5077006;28;20434;-79
2021/12/08 07:34:31;;;;;;;7.80;2.78;;;5.30;99.90;;;;;;5081475;28;20044;-78
2021/12/08 07:37:02;;;;;;;8.80;3.95;;;5.30;99.90;;;;;;5087650;28;20115;-79
2021/12/08 07:39:36;;;;;;;7.95;3.40;;;5.30;99.90;;;;;;5080429;28;20052;-78
2021/12/08 07:42:11;;;;;;;6.38;3.28;;;5.30;99.90;;;;;;5071446;28;20040;-79
2021/12/08 07:44:37;;;;;;;10.90;3.00;;;5.30;99.90;;;;;;5071539;28;20147;-78
2021/12/08 07:47:08;;;;;;;11.20;3.03;;;5.30;99.90;;;;;;5087340;28;20544;-78
2021/12/08 07:49:40;;;;;;;9.40;2.95;;;5.30;99.90;;;;;;5083074;28;20123;-78
2021/12/08 07:52:14;;;;;;;7.65;2.72;;;5.30;99.90;;;;;;5080789;28;20375;-78
2021/12/08 07:54:41;;;;;;;9.60;2.60;;;5.30;99.90;;;;;;5078538;28;20041;-78
2021/12/08 07:57:11;;;;;;;5.30;2.50;;;5.40;99.90;;;;;;5083011;28;20122;-78
2021/12/08 07:59:39;;;;;;;8.43;2.58;;;5.40;99.90;;;;;;5070987;28;20036;-79
2021/12/08 08:02:07;;;;;;;5.95;2.65;;;5.40;99.90;;;;;;5081675;28;20044;-78
2021/12/08 08:04:35;;;;;;;9.18;2.33;;;5.40;99.90;;;;;;5081135;28;20236;-79
2021/12/08 08:07:01;;;;;;;10.68;3.00;;;5.40;99.90;;;;;;5059644;28;20481;-78
2021/12/08 08:09:33;;;;;;;7.80;2.42;;;5.30;99.90;;;;;;5062115;28;20032;-79
2021/12/08 08:12:01;;;;;;;10.55;2.40;;;5.40;99.90;;;;;;5079177;28;20409;-79
2021/12/08 08:14:32;;;;;;;10.85;2.60;;;5.30;99.90;;;;;;5082233;28;20251;-78
2021/12/08 08:17:00;;;;;;;6.90;2.65;;;5.40;99.90;;;;;;5071626;28;20044;-78
2021/12/08 08:19:29;;;;;;;7.55;2.03;;;5.40;99.90;;;;;;5089058;28;20373;-78
2021/12/08 08:22:01;;;;;;;8.38;2.67;;;5.40;99.90;;;;;;5088757;28;20043;-78
2021/12/08 08:24:28;;;;;;;7.05;2.17;;;5.40;99.90;;;;;;5088557;28;20066;-78
2021/12/08 08:26:57;;;;;;;12.50;2.83;;;5.40;99.90;;;;;;5088512;28;20044;-79
2021/12/08 08:29:23;;;;;;;8.77;2.95;;;5.40;99.90;;;;;;5085612;28;20036;-79
2021/12/08 08:32:17;;;;;;;9.57;2.30;;;5.40;99.90;;;;;;5086343;28;20267;-78
2021/12/08 08:34:45;;;;;;;9.38;2.35;;;5.40;99.90;;;;;;5082217;28;20515;-78
2021/12/08 08:37:12;;;;;;;9.75;3.30;;;5.50;99.90;;;;;;5062421;28;20036;-78
2021/12/08 08:40:07;;;;;;;6.15;2.17;;;5.40;99.90;;;;;;5077708;28;20135;-79
2021/12/08 08:42:36;;;;;;;8.05;1.80;;;5.50;99.90;;;;;;5070382;28;20044;-77
2021/12/08 08:45:22;;;;;;;7.53;2.15;;;5.50;99.90;;;;;;5076092;28;20047;-77
2021/12/08 08:47:54;;;;;;;9.43;2.30;;;5.50;99.90;;;;;;5080948;28;20040;-78
2021/12/08 08:50:33;;;;;;;13.32;2.25;;;5.50;99.90;;;;;;5074331;28;20044;-79
2021/12/08 08:53:01;;;;;;;10.60;2.55;;;5.50;99.90;;;;;;5078919;28;20078;-78
2021/12/08 08:55:37;;;;;;;6.93;1.67;;;5.60;99.90;;;;;;5062407;28;20046;-79
2021/12/08 08:58:05;;;;;;;9.32;1.98;;;5.60;99.90;;;;;;5067297;28;20036;-78
2021/12/08 09:01:03;;;;;;;10.25;2.50;;;5.60;99.90;;;;;;5077601;28;20035;-79
2021/12/08 09:03:38;;;;;;;7.93;2.25;;;5.70;99.90;;;;;;5079395;28;20321;-78
2021/12/08 09:06:12;;;;;;;8.43;1.95;;;5.70;99.90;;;;;;5083964;28;20542;-78
2021/12/08 09:08:39;;;;;;;9.25;2.00;;;5.80;99.90;;;;;;5081554;28;20051;-78
2021/12/08 09:11:18;;;;;;;5.65;1.90;;;5.80;99.90;;;;;;5079076;28;20089;-78
2021/12/08 09:13:59;;;;;;;11.20;2.00;;;5.80;99.90;;;;;;5074243;28;20048;-78
2021/12/08 09:16:30;;;;;;;11.73;2.30;;;5.80;99.90;;;;;;5082761;28;20308;-78
2021/12/08 09:19:06;;;;;;;10.23;2.40;;;5.90;99.90;;;;;;5078359;28;20035;-78
2021/12/08 09:21:47;;;;;;;13.65;2.47;;;5.90;99.90;;;;;;5062762;28;20028;-79
2021/12/08 09:24:16;;;;;;;9.02;2.08;;;5.90;99.90;;;;;;5080463;28;20038;-78
2021/12/08 09:26:47;;;;;;;9.98;2.30;;;5.90;99.90;;;;;;5063062;28;20042;-78
2021/12/08 09:29:18;;;;;;;8.00;2.22;;;5.90;99.90;;;;;;5075417;28;20116;-78
2021/12/08 09:31:53;;;;;;;10.70;3.03;;;5.90;99.90;;;;;;5077635;28;20516;-78
2021/12/08 09:34:27;;;;;;;9.65;2.03;;;6.00;99.90;;;;;;5069314;28;20392;-78
2021/12/08 09:36:56;;;;;;;8.98;2.10;;;5.90;99.90;;;;;;5080256;28;20048;-78
2021/12/08 09:39:32;;;;;;;7.75;2.55;;;5.90;99.90;;;;;;5079342;28;20501;-78
2021/12/08 09:42:10;;;;;;;7.38;2.47;;;5.90;99.90;;;;;;5078777;28;20416;-78
2021/12/08 09:44:45;;;;;;;7.82;2.80;;;5.90;99.90;;;;;;5082841;28;20381;-78
2021/12/08 09:47:11;;;;;;;12.50;2.33;;;5.90;99.90;;;;;;5062576;28;20036;-78
2021/12/08 09:49:36;;;;;;;11.20;2.13;;;5.90;99.90;;;;;;5064879;28;20058;-78
2021/12/08 09:52:10;;;;;;;9.85;2.45;;;5.90;99.90;;;;;;5081640;28;20472;-78
2021/12/08 09:54:38;;;;;;;8.20;2.13;;;5.90;99.90;;;;;;5061003;28;20126;-78
2021/12/08 09:57:10;;;;;;;6.65;2.17;;;5.90;99.90;;;;;;5077366;28;20500;-78
2021/12/08 09:59:40;;;;;;;9.43;2.58;;;6.00;99.90;;;;;;5063214;28;20036;-78
2021/12/08 10:02:08;;;;;;;7.97;2.08;;;6.00;99.90;;;;;;5083527;28;20048;-78
2021/12/08 10:04:34;;;;;;;10.27;2.25;;;6.00;99.90;;;;;;5077290;28;20497;-78
2021/12/08 10:07:00;;;;;;;13.77;3.30;;;6.00;99.90;;;;;;5084023;28;20047;-78
2021/12/08 10:09:26;;;;;;;9.90;2.40;;;6.00;99.90;;;;;;5082033;28;20032;-78
2021/12/08 10:11:54;;;;;;;13.55;2.35;;;6.10;99.90;;;;;;5065734;28;20086;-78
2021/12/08 10:14:21;;;;;;;11.23;2.58;;;6.10;99.90;;;;;;5063320;28;20485;-78
2021/12/08 10:16:50;;;;;;;7.13;2.17;;;6.20;99.90;;;;;;5081204;28;20089;-78
2021/12/08 10:19:17;;;;;;;9.15;2.28;;;6.20;99.90;;;;;;5065395;28;20037;-79
2021/12/08 10:21:45;;;;;;;14.65;2.42;;;6.10;99.90;;;;;;5079324;28;20485;-78
2021/12/08 10:24:15;;;;;;;8.00;2.55;;;6.10;99.90;;;;;;5067702;28;20127;-78
2021/12/08 10:26:41;;;;;;;11.77;2.80;;;6.10;99.90;;;;;;5065198;28;20123;-78
2021/12/08 10:29:08;;;;;;;12.57;2.60;;;6.10;99.90;;;;;;5082028;28;20123;-78
2021/12/08 10:31:44;;;;;;;11.13;2.53;;;6.10;99.90;;;;;;5072707;28;20405;-78
2021/12/08 10:34:23;;;;;;;12.93;2.88;;;6.00;99.90;;;;;;5063973;28;20024;-79
2021/12/08 10:36:55;;;;;;;9.07;2.50;;;6.00;99.90;;;;;;5066669;28;20523;-78
2021/12/08 10:39:30;;;;;;;9.77;2.60;;;6.00;99.90;;;;;;5082663;28;20502;-79
2021/12/08 10:42:06;;;;;;;11.70;3.30;;;6.00;99.90;;;;;;5076064;28;20049;-79
2021/12/08 10:47:32;;;;;;;8.38;2.53;;;6.00;99.90;;;;;;5081111;28;20036;-78
2021/12/08 10:55:25;;;;;;;11.60;3.10;;;6.00;99.90;;;;;;5073234;28;20055;-84
2021/12/08 10:57:55;;;;;;;8.93;2.58;;;6.00;99.90;;;;;;5062022;28;21106;-79
2021/12/08 11:00:32;;;;;;;11.30;2.97;;;6.00;99.90;;;;;;5060484;28;20128;-78
2021/12/08 11:03:04;;;;;;;14.70;3.03;;;6.00;99.90;;;;;;5102206;27;20051;-78
2021/12/08 11:05:38;;;;;;;9.20;2.90;;;5.90;99.90;;;;;;5084232;28;20536;-78
2021/12/08 11:08:04;;;;;;;9.27;2.75;;;6.00;99.90;;;;;;5083507;28;20115;-79
2021/12/08 11:10:54;;;;;;;8.07;3.47;;;6.00;99.90;;;;;;5081507;28;20119;-78
2021/12/08 11:13:30;;;;;;;9.82;2.95;;;6.10;99.90;;;;;;5083075;28;20049;-79
2021/12/08 11:16:04;;;;;;;10.77;2.97;;;6.10;99.90;;;;;;5069985;28;20066;-79
2021/12/08 11:18:30;;;;;;;10.32;2.88;;;6.10;99.90;;;;;;5070503;28;20036;-79
2021/12/08 11:21:15;;;;;;;9.80;2.55;;;6.10;99.90;;;;;;5067629;28;20465;-79
2021/12/08 11:23:45;;;;;;;6.32;2.22;;;6.10;99.90;;;;;;5093603;28;20550;-79
2021/12/08 11:26:27;;;;;;;8.50;2.58;;;6.20;99.90;;;;;;5065654;28;20122;-79
2021/12/08 11:29:00;;;;;;;8.10;2.50;;;6.20;99.90;;;;;;5078084;28;20042;-79
2021/12/08 11:31:35;;;;;;;13.40;2.85;;;6.30;99.90;;;;;;5066536;28;20048;-79
2021/12/08 11:34:05;;;;;;;9.68;2.97;;;6.30;99.90;;;;;;5080811;28;20516;-78
2021/12/08 11:36:38;;;;;;;10.13;2.78;;;6.40;99.90;;;;;;5061653;28;20484;-79
2021/12/08 11:39:14;;;;;;;11.38;2.72;;;6.40;99.90;;;;;;5066789;28;20437;-81
2021/12/08 11:41:41;;;;;;;;;;;6.40;99.90;;;;;;5087017;28;20490;-79
2021/12/08 11:44:11;;;;;;;12.15;3.25;;;6.40;99.90;;;;;;5083736;28;20419;-78
2021/12/08 11:46:49;;;;;;;9.98;2.50;;;6.40;99.90;;;;;;5080751;28;20123;-78
2021/12/08 11:49:15;;;;;;;11.60;3.10;;;6.40;99.90;;;;;;5073590;28;20390;-79
2021/12/08 11:51:44;;;;;;;13.65;3.42;;;6.50;99.90;;;;;;5078523;28;20387;-80
2021/12/08 11:54:48;;;;;;;8.88;2.90;;;6.50;99.90;;;;;;5065376;28;20485;-80
2021/12/08 11:57:21;;;;;;;8.65;3.17;;;6.50;99.90;;;;;;5054959;28;20106;-80
2021/12/08 12:00:12;;;;;;;8.30;2.80;;;6.50;99.90;;;;;;5078785;28;20567;-80
2021/12/08 12:02:46;;;;;;;6.22;2.60;;;6.50;99.90;;;;;;5095752;28;20044;-81
2021/12/08 12:05:20;;;;;;;9.52;4.28;;;6.50;99.90;;;;;;5094152;28;20032;-80
2021/12/08 12:07:46;;;;;;;7.70;2.90;;;6.50;99.90;;;;;;5075539;28;20044;-80
2021/12/08 12:10:14;;;;;;;9.82;2.65;;;6.50;99.90;;;;;;5071972;28;20119;-80
2021/12/08 12:12:41;;;;;;;12.80;2.78;;;6.50;99.90;;;;;;5065532;28;20067;-80
2021/12/08 12:15:10;;;;;;;8.93;2.88;;;6.50;99.90;;;;;;5059882;28;20043;-79
2021/12/08 12:17:36;;;;;;;11.75;2.60;;;6.50;99.90;;;;;;5074531;28;20432;-79
2021/12/08 12:20:05;;;;;;;11.48;2.70;;;6.50;99.90;;;;;;5081444;28;20089;-79
2021/12/08 12:22:44;;;;;;;5.38;2.50;;;6.50;99.90;;;;;;5079804;28;20044;-80
2021/12/08 12:25:31;;;;;;;8.57;2.50;;;6.40;99.90;;;;;;5081940;28;20567;-80
2021/12/08 12:28:29;;;;;;;8.00;2.58;;;6.40;99.90;;;;;;5080765;28;20392;-80
2021/12/08 12:31:25;;;;;;;7.45;2.33;;;6.50;99.90;;;;;;5048318;28;20105;-81
2021/12/08 12:33:52;;;;;;;8.57;2.53;;;6.40;99.90;;;;;;5078299;28;20056;-79
2021/12/08 12:36:33;;;;;;;9.25;2.85;;;6.50;99.90;;;;;;5076580;28;20340;-79
2021/12/08 12:39:17;;;;;;;10.00;2.30;;;6.40;99.90;;;;;;5066026;28;20047;-79
2021/12/08 12:41:44;;;;;;;8.50;2.17;;;6.50;99.90;;;;;;5078878;28;20036;-78
2021/12/08 12:44:19;;;;;;;12.55;3.92;;;6.50;99.90;;;;;;5080541;28;20454;-85
2021/12/08 12:47:03;;;;;;;8.60;2.20;;;6.40;99.90;;;;;;5066127;28;20032;-80
2021/12/08 12:49:30;;;;;;;6.43;2.20;;;6.50;99.90;;;;;;5085627;28;20120;-80
2021/12/08 12:52:01;;;;;;;7.03;2.38;;;6.40;99.90;;;;;;5084525;28;20040;-79
2021/12/08 12:54:27;;;;;;;6.60;2.47;;;6.40;99.90;;;;;;5079502;28;20036;-80
2021/12/08 12:56:54;;;;;;;10.50;2.35;;;6.40;99.90;;;;;;5076803;28;20043;-80
2021/12/08 12:59:24;;;;;;;9.68;2.45;;;6.40;99.90;;;;;;5082491;28;20044;-80
2021/12/08 13:02:09;;;;;;;7.85;2.00;;;6.40;99.90;;;;;;5080872;28;20215;-80
2021/12/08 13:04:51;;;;;;;6.82;2.08;;;6.40;99.90;;;;;;5062760;28;20211;-80
2021/12/08 13:07:18;;;;;;;8.75;2.25;;;6.50;99.90;;;;;;5078880;28;20124;-80
2021/12/08 13:09:53;;;;;;;11.63;2.25;;;6.40;99.90;;;;;;5080976;28;20028;-81
2021/12/08 13:12:34;;;;;;;10.40;2.42;;;6.50;99.90;;;;;;5080914;28;20572;-81
2021/12/08 13:15:14;;;;;;;7.35;2.00;;;6.40;99.90;;;;;;5078618;28;20055;-80
2021/12/08 13:18:07;;;;;;;12.98;2.40;;;6.50;99.90;;;;;;5072674;28;20028;-80
2021/12/08 13:21:06;;;;;;;9.32;2.38;;;6.50;99.90;;;;;;5071039;28;20029;-80
2021/12/08 13:23:32;;;;;;;8.93;2.53;;;6.50;99.90;;;;;;5067034;28;20064;-80
2021/12/08 13:26:08;;;;;;;10.07;2.20;;;6.60;99.90;;;;;;5058710;28;20374;-80
2021/12/08 13:28:42;;;;;;;6.45;2.30;;;6.60;99.90;;;;;;5081847;28;20071;-80
2021/12/08 13:31:13;;;;;;;8.35;2.45;;;6.50;99.90;;;;;;5056891;28;20037;-79
2021/12/08 13:33:51;;;;;;;12.68;2.85;;;6.50;99.90;;;;;;5077060;28;20503;-79
2021/12/08 13:36:19;;;;;;;9.45;2.33;;;6.50;99.90;;;;;;5081768;28;20047;-80
2021/12/08 13:38:47;;;;;;;8.75;2.40;;;6.50;99.90;;;;;;5082336;28;20072;-79
2021/12/08 13:41:15;;;;;;;10.65;3.03;;;6.50;99.90;;;;;;5079385;28;20045;-79
2021/12/08 13:43:44;;;;;;;8.90;2.35;;;6.50;99.90;;;;;;5084795;28;20043;-79
2021/12/08 13:46:31;;;;;;;9.13;2.33;;;6.50;99.90;;;;;;5086487;28;20544;-79
2021/12/08 13:49:17;;;;;;;13.18;2.65;;;6.50;99.90;;;;;;5078505;28;20036;-79
2021/12/08 13:52:07;;;;;;;7.97;2.63;;;6.60;99.90;;;;;;5080856;28;20134;-79
2021/12/08 13:54:34;;;;;;;7.97;2.47;;;6.50;99.90;;;;;;5066561;28;20043;-80
2021/12/08 13:57:03;;;;;;;7.30;2.05;;;6.50;99.90;;;;;;5078193;28;20397;-80
2021/12/08 13:59:58;;;;;;;7.35;2.00;;;6.60;99.90;;;;;;5063263;28;20044;-80
2021/12/08 14:02:31;;;;;;;6.10;2.03;;;6.60;99.90;;;;;;5083225;28;20087;-80
2021/12/08 14:05:09;;;;;;;14.32;2.40;;;6.60;99.90;;;;;;5077168;28;20032;-82